Map

Track Data

SID SEASON NUMBER BASIN SUBBASIN NAME ISO_TIME NATURE LAT LON WMO_WIND WMO_PRES WMO_AGENCY TRACK_TYPE DIST2LAND LANDFALL IFLAG USA_AGENCY USA_ATCF_ID USA_LAT USA_LON USA_RECORD USA_STATUS USA_WIND USA_PRES USA_SSHS USA_R34_NE USA_R34_SE USA_R34_SW USA_R34_NW USA_R50_NE USA_R50_SE USA_R50_SW USA_R50_NW USA_R64_NE USA_R64_SE USA_R64_SW USA_R64_NW USA_POCI USA_ROCI USA_RMW USA_EYE TOKYO_LAT TOKYO_LON TOKYO_GRADE TOKYO_WIND TOKYO_PRES TOKYO_R50_DIR TOKYO_R50_LONG TOKYO_R50_SHORT TOKYO_R30_DIR TOKYO_R30_LONG TOKYO_R30_SHORT TOKYO_LAND CMA_LAT CMA_LON CMA_CAT CMA_WIND CMA_PRES HKO_LAT HKO_LON HKO_CAT HKO_WIND HKO_PRES NEWDELHI_LAT NEWDELHI_LON NEWDELHI_GRADE NEWDELHI_WIND NEWDELHI_PRES NEWDELHI_CI NEWDELHI_DP NEWDELHI_POCI REUNION_LAT REUNION_LON REUNION_TYPE REUNION_WIND REUNION_PRES REUNION_TNUM REUNION_CI REUNION_RMW REUNION_R34_NE REUNION_R34_SE REUNION_R34_SW REUNION_R34_NW REUNION_R50_NE REUNION_R50_SE REUNION_R50_SW REUNION_R50_NW REUNION_R64_NE REUNION_R64_SE REUNION_R64_SW REUNION_R64_NW BOM_LAT BOM_LON BOM_TYPE BOM_WIND BOM_PRES BOM_TNUM BOM_CI BOM_RMW BOM_R34_NE BOM_R34_SE BOM_R34_SW BOM_R34_NW BOM_R50_NE BOM_R50_SE BOM_R50_SW BOM_R50_NW BOM_R64_NE BOM_R64_SE BOM_R64_SW BOM_R64_NW BOM_ROCI BOM_POCI BOM_EYE BOM_POS_METHOD BOM_PRES_METHOD NADI_LAT NADI_LON NADI_CAT NADI_WIND NADI_PRES WELLINGTON_LAT WELLINGTON_LON WELLINGTON_WIND WELLINGTON_PRES DS824_LAT DS824_LON DS824_STAGE DS824_WIND DS824_PRES TD9636_LAT TD9636_LON TD9636_STAGE TD9636_WIND TD9636_PRES TD9635_LAT TD9635_LON TD9635_WIND TD9635_PRES TD9635_ROCI NEUMANN_LAT NEUMANN_LON NEUMANN_CLASS NEUMANN_WIND NEUMANN_PRES MLC_LAT MLC_LON MLC_CLASS MLC_WIND MLC_PRES USA_GUST BOM_GUST BOM_GUST_PER REUNION_GUST REUNION_GUST_PER USA_SEAHGT USA_SEARAD_NE USA_SEARAD_SE USA_SEARAD_SW USA_SEARAD_NW STORM_SPEED STORM_DIR
1904195N22128 1904 21 WP MM NOT_NAMED 1904-07-12 13:00:00 NR 22.0000 128.400 main 720 696 __________O___ -1 22.0000 128.400 7 7 294
1904195N22128 1904 21 WP MM NOT_NAMED 1904-07-12 15:00:00 NR 22.0906 128.184 main 696 663 __________P___ -1 22.0906 128.184 7 7 295
1904195N22128 1904 21 WP MM NOT_NAMED 1904-07-12 18:00:00 NR 22.2298 127.859 main 663 617 __________P___ -1 22.2298 127.859 7 7 296
1904195N22128 1904 21 WP MM NOT_NAMED 1904-07-12 21:00:00 NR 22.3781 127.533 main 617 584 __________P___ -1 22.3781 127.533 7 7 297
1904195N22128 1904 21 WP MM NOT_NAMED 1904-07-13 00:00:00 NR 22.5413 127.208 main 584 570 __________P___ -1 22.5413 127.208 7 7 299
1904195N22128 1904 21 WP MM NOT_NAMED 1904-07-13 01:00:00 NR 22.6000 127.100 main 570 547 __________O___ -1 22.6000 127.100 7 7 302
1904195N22128 1904 21 WP MM NOT_NAMED 1904-07-13 03:00:00 NR 22.7245 126.884 main 547 510 __________P___ -1 22.7245 126.884 7 7 303
1904195N22128 1904 21 WP MM NOT_NAMED 1904-07-13 06:00:00 NR 22.9240 126.566 main 510 473 __________P___ -1 22.9240 126.566 7 7 305
1904195N22128 1904 21 WP MM NOT_NAMED 1904-07-13 09:00:00 NR 23.1304 126.263 main 473 437 __________P___ -1 23.1304 126.263 7 7 308
1904195N22128 1904 21 WP MM NOT_NAMED 1904-07-13 12:00:00 NR 23.3342 125.985 main 437 424 __________P___ -1 23.3342 125.985 7 6 309
1904195N22128 1904 21 WP MM NOT_NAMED 1904-07-13 13:00:00 NR 23.4000 125.900 main 424 411 __________O___ -1 23.4000 125.900 7 5 312
1904195N22128 1904 21 WP MM NOT_NAMED 1904-07-13 15:00:00 NR 23.5005 125.787 main 411 388 __________P___ -1 23.5005 125.787 7 4 316
1904195N22128 1904 21 WP MM NOT_NAMED 1904-07-13 18:00:00 NR 23.6448 125.644 main 388 373 __________P___ -1 23.6448 125.644 7 4 317
1904195N22128 1904 21 WP MM NOT_NAMED 1904-07-13 21:00:00 NR 23.8069 125.476 main 373 338 __________P___ -1 23.8069 125.476 7 5 314
1904195N22128 1904 21 WP MM NOT_NAMED 1904-07-14 00:00:00 NR 24.0154 125.218 main 338 327 __________P___ -1 24.0154 125.218 7 7 311
1904195N22128 1904 21 WP MM NOT_NAMED 1904-07-14 01:00:00 NR 24.1000 125.100 main 327 293 __________O___ -1 24.1000 125.100 7 10 310
1904195N22128 1904 21 WP MM NOT_NAMED 1904-07-14 03:00:00 NR 24.3442 124.788 main 293 222 __________P___ -1 24.3442 124.788 7 13 309
1904195N22128 1904 21 WP MM NOT_NAMED 1904-07-14 06:00:00 NR 24.7615 124.212 main 222 152 __________P___ -1 24.7615 124.212 7 14 306
1904195N22128 1904 21 WP MM NOT_NAMED 1904-07-14 09:00:00 NR 25.1758 123.546 main 152 97 __________P___ -1 25.1758 123.546 7 15 301
1904195N22128 1904 21 WP MM NOT_NAMED 1904-07-14 12:00:00 NR 25.5156 122.837 main 97 90 __________P___ -1 25.5156 122.837 7 14 296
1904195N22128 1904 21 WP MM NOT_NAMED 1904-07-14 13:00:00 NR 25.6000 122.600 main 90 75 __________O___ -1 25.6000 122.600 7 13 286
1904195N22128 1904 21 WP MM NOT_NAMED 1904-07-14 15:00:00 NR 25.6936 122.141 main 75 55 __________P___ -1 25.6936 122.141 7 13 278
1904195N22128 1904 21 WP MM NOT_NAMED 1904-07-14 18:00:00 NR 25.7397 121.442 main 55 55 __________P___ -1 25.7397 121.442 7 13 271
1904195N22128 1904 21 WP MM NOT_NAMED 1904-07-14 21:00:00 NR 25.7056 120.753 main 78 45 __________P___ -1 25.7056 120.753 7 12 265
1904195N22128 1904 21 WP MM NOT_NAMED 1904-07-15 00:00:00 NR 25.6286 120.103 main 45 30 __________P___ -1 25.6286 120.103 7 12 262
1904195N22128 1904 21 WP MM NOT_NAMED 1904-07-15 01:00:00 NR 25.6000 119.900 main 30 0 __________O___ -1 25.6000 119.900 7 11 264
1904195N22128 1904 21 WP MM NOT_NAMED 1904-07-15 03:00:00 NR 25.5716 119.514 main 0 0 __________P___ -1 25.5716 119.514 7 10 264
1904195N22128 1904 21 WP MM NOT_NAMED 1904-07-15 06:00:00 NR 25.5109 118.978 main 0 0 __________P___ -1 25.5109 118.978 7 9 261
1904195N22128 1904 21 WP MM NOT_NAMED 1904-07-15 09:00:00 NR 25.4312 118.489 main 0 0 __________P___ -1 25.4312 118.489 7 9 258
1904195N22128 1904 21 WP MM NOT_NAMED 1904-07-15 12:00:00 NR 25.3352 118.041 main 0 0 __________P___ -1 25.3352 118.041 7 8 256
1904195N22128 1904 21 WP MM NOT_NAMED 1904-07-15 13:00:00 NR 25.3000 117.900 main 0 0 __________O___ -1 25.3000 117.900 7 8 253
1904195N22128 1904 21 WP MM NOT_NAMED 1904-07-15 15:00:00 NR 25.2120 117.608 main 0 0 __________P___ -1 25.2120 117.608 7 8 250
1904195N22128 1904 21 WP MM NOT_NAMED 1904-07-15 18:00:00 NR 25.0674 117.202 main 0 0 __________P___ -1 25.0674 117.202 7 8 248
1904195N22128 1904 21 WP MM NOT_NAMED 1904-07-15 21:00:00 NR 24.9297 116.833 main 0 0 __________P___ -1 24.9297 116.833 7 7 249
1904195N22128 1904 21 WP MM NOT_NAMED 1904-07-16 00:00:00 NR 24.8239 116.502 main 0 0 __________P___ -1 24.8239 116.502 7 6 252
1904195N22128 1904 21 WP MM NOT_NAMED 1904-07-16 01:00:00 NR 24.8000 116.400 main 0 0 __________O___ -1 24.8000 116.400 7 6 259
1904195N22128 1904 21 WP MM NOT_NAMED 1904-07-16 03:00:00 NR 24.7666 116.166 main 0 0 __________P___ -1 24.7666 116.166 7 6 265
1904195N22128 1904 21 WP MM NOT_NAMED 1904-07-16 06:00:00 NR 24.7541 115.845 main 0 0 __________P___ -1 24.7541 115.845 7 5 272
1904195N22128 1904 21 WP MM NOT_NAMED 1904-07-16 09:00:00 NR 24.7866 115.588 main 0 0 __________P___ -1 24.7866 115.588 7 4 286
1904195N22128 1904 21 WP MM NOT_NAMED 1904-07-16 12:00:00 NR 24.8641 115.427 main 0 0 __________P___ -1 24.8641 115.427 7 3 303
1904195N22128 1904 21 WP MM NOT_NAMED 1904-07-16 13:00:00 NR 24.9000 115.400 main 0 0 __________O___ -1 24.9000 115.400 7 2 337
1904195N22128 1904 21 WP MM NOT_NAMED 1904-07-16 15:00:00 NR 24.9795 115.382 main 0 0 __________P___ -1 24.9795 115.382 7 3 10
1904195N22128 1904 21 WP MM NOT_NAMED 1904-07-16 18:00:00 NR 25.1368 115.449 main 0 0 __________P___ -1 25.1368 115.449 7 4 30
1904195N22128 1904 21 WP MM NOT_NAMED 1904-07-16 21:00:00 NR 25.3258 115.604 main 0 0 __________P___ -1 25.3258 115.604 7 5 40
1904195N22128 1904 21 WP MM NOT_NAMED 1904-07-17 00:00:00 NR 25.5308 115.820 main 0 0 __________P___ -1 25.5308 115.820 7 6 44
1904195N22128 1904 21 WP MM NOT_NAMED 1904-07-17 01:00:00 NR 25.6000 115.900 main 0 0 __________O___ -1 25.6000 115.900 7 6 45
1904195N22128 1904 21 WP MM NOT_NAMED 1904-07-17 03:00:00 NR 25.7330 116.049 main 0 0 __________P___ -1 25.7330 116.049 7 6 47
1904195N22128 1904 21 WP MM NOT_NAMED 1904-07-17 06:00:00 NR 25.9388 116.310 main 0 0 __________P___ -1 25.9388 116.310 7 6 50
1904195N22128 1904 21 WP MM NOT_NAMED 1904-07-17 09:00:00 NR 26.1439 116.600 main 0 0 __________P___ -1 26.1439 116.600 7 7 53
1904195N22128 1904 21 WP MM NOT_NAMED 1904-07-17 12:00:00 NR 26.3388 116.901 main 0 0 __________P___ -1 26.3388 116.901 7 7 54
1904195N22128 1904 21 WP MM NOT_NAMED 1904-07-17 13:00:00 NR 26.4000 117.000 main 0 0 __________O___ -1 26.4000 117.000 7 6 56
1904195N22128 1904 21 WP MM NOT_NAMED 1904-07-17 15:00:00 NR 26.5153 117.194 main 0 0 __________P___ -1 26.5153 117.194 7 6 57
1904195N22128 1904 21 WP MM NOT_NAMED 1904-07-17 18:00:00 NR 26.6732 117.474 main 0 0 __________P___ -1 26.6732 117.474 7 6 58
1904195N22128 1904 21 WP MM NOT_NAMED 1904-07-17 21:00:00 NR 26.8180 117.745 main 0 0 __________P___ -1 26.8180 117.745 7 6 60
1904195N22128 1904 21 WP MM NOT_NAMED 1904-07-18 00:00:00 NR 26.9551 118.012 main 0 0 __________P___ -1 26.9551 118.012 7 5 60
1904195N22128 1904 21 WP MM NOT_NAMED 1904-07-18 01:00:00 NR 27.0000 118.100 main 0 __________O___ -1 27.0000 118.100 7 5 59

Digital Typhoon Data and Search

About IBTrACS Database

This database is a web-friendly format of International Best Track Archive for Climate Stewardship (IBTrACS), a global best track data archive curated by NOAA dating back to 1842.

Updated: 2021-10-08